createdAt,value
2023-02-18T00:02:18.095Z,9.97
2023-02-18T00:05:24.331Z,9.94
2023-02-18T00:08:28.880Z,9.92
2023-02-18T00:11:37.791Z,9.91
2023-02-18T00:14:44.305Z,9.91
2023-02-18T00:17:50.543Z,9.87
2023-02-18T00:20:55.090Z,9.83
2023-02-18T00:24:01.282Z,9.78
2023-02-18T00:27:05.777Z,9.76
2023-02-18T00:30:13.635Z,9.77
2023-02-18T00:33:19.885Z,9.76
2023-02-18T00:36:24.872Z,9.77
2023-02-18T00:39:31.697Z,9.81
2023-02-18T00:42:38.005Z,9.86
2023-02-18T00:45:44.267Z,9.90
2023-02-18T00:48:50.894Z,9.91
2023-02-18T00:51:57.322Z,9.92
2023-02-18T00:55:03.532Z,9.96
2023-02-18T00:58:08.040Z,9.98
2023-02-18T01:01:14.727Z,10.00
2023-02-18T01:04:21.387Z,10.06
2023-02-18T01:07:27.777Z,10.12
2023-02-18T01:10:34.224Z,10.15
2023-02-18T01:13:41.168Z,10.20
2023-02-18T01:16:47.496Z,10.24
2023-02-18T01:19:53.520Z,10.27
2023-02-18T01:22:59.928Z,10.30
2023-02-18T01:26:06.727Z,10.34
2023-02-18T01:29:13.357Z,10.36
2023-02-18T01:32:19.960Z,10.38
2023-02-18T01:35:27.057Z,10.41
2023-02-18T01:38:33.369Z,10.44
2023-02-18T01:41:39.603Z,10.48
2023-02-18T01:44:45.193Z,10.49
2023-02-18T01:47:51.569Z,10.49
2023-02-18T01:51:02.212Z,10.39
2023-02-18T01:54:10.935Z,10.19
2023-02-18T01:57:20.112Z,9.97
2023-02-18T02:00:26.828Z,9.79
2023-02-18T02:03:33.149Z,9.66
2023-02-18T02:06:39.591Z,9.47
2023-02-18T02:09:46.977Z,9.31
2023-02-18T02:13:02.592Z,9.19
2023-02-18T02:16:13.133Z,9.07
2023-02-18T02:19:51.449Z,8.98
2023-02-18T02:23:17.526Z,8.91
2023-02-18T02:27:00.469Z,8.82
2023-02-18T02:30:42.361Z,8.73
2023-02-18T02:34:19.076Z,8.68
2023-02-18T02:37:35.403Z,8.64
2023-02-18T02:40:48.205Z,8.61
2023-02-18T02:44:03.660Z,8.60
2023-02-18T02:47:15.818Z,8.59
2023-02-18T02:50:27.974Z,8.58
2023-02-18T02:53:35.599Z,8.59
2023-02-18T02:56:41.887Z,8.59
2023-02-18T02:59:53.968Z,8.62
2023-02-18T03:03:28.905Z,8.64
2023-02-18T03:06:56.833Z,8.64
2023-02-18T03:10:18.634Z,8.64
2023-02-18T03:13:35.400Z,8.64
2023-02-18T03:16:50.593Z,8.64
2023-02-18T03:20:03.132Z,8.66
2023-02-18T03:23:18.017Z,8.66
2023-02-18T03:47:03.652Z,8.77
2023-02-18T03:50:11.712Z,8.76
2023-02-18T03:53:17.877Z,8.69
2023-02-18T03:56:22.990Z,8.63
2023-02-18T03:59:29.259Z,8.57
2023-02-18T04:02:33.801Z,8.52
2023-02-18T04:05:39.869Z,8.47
2023-02-18T04:08:46.537Z,8.42
2023-02-18T04:11:52.761Z,8.39
2023-02-18T04:14:57.219Z,8.37
2023-02-18T04:18:03.170Z,8.33
2023-02-18T04:21:09.882Z,8.30
2023-02-18T04:24:16.109Z,8.28
2023-02-18T04:27:20.752Z,8.26
2023-02-18T04:30:27.136Z,8.23
2023-02-18T04:33:33.478Z,8.20
2023-02-18T04:36:38.067Z,8.18
2023-02-18T04:39:44.190Z,8.15
2023-02-18T04:42:50.359Z,8.14
2023-02-18T04:45:56.305Z,8.14
2023-02-18T04:49:02.566Z,8.13
2023-02-18T04:52:07.468Z,8.12
2023-02-18T04:55:13.676Z,8.10
2023-02-18T04:58:18.181Z,8.05
2023-02-18T05:01:24.497Z,8.02
2023-02-18T05:04:30.889Z,7.99
2023-02-18T05:07:37.493Z,7.95
2023-02-18T05:10:43.727Z,7.92
2023-02-18T05:13:50.045Z,7.90
2023-02-18T05:16:54.567Z,7.89
2023-02-18T05:20:00.863Z,7.91
2023-02-18T05:23:07.079Z,7.89
2023-02-18T05:26:11.675Z,7.85
2023-02-18T05:29:17.970Z,7.82
2023-02-18T05:32:22.476Z,7.76
2023-02-18T05:35:28.667Z,7.72
2023-02-18T05:38:33.294Z,7.68
2023-02-18T05:41:39.642Z,7.65
2023-02-18T05:44:44.105Z,7.62
2023-02-18T05:47:50.266Z,7.57
2023-02-18T05:50:56.943Z,7.51
2023-02-18T05:54:03.147Z,7.46
2023-02-18T05:57:07.628Z,7.41
2023-02-18T06:00:15.734Z,7.37
2023-02-18T06:03:21.980Z,7.31
2023-02-18T06:06:26.490Z,7.30
2023-02-18T06:09:32.721Z,7.35
2023-02-18T06:12:38.974Z,7.38
2023-02-18T06:15:43.528Z,7.39
2023-02-18T06:18:49.680Z,7.40
2023-02-18T06:21:56.301Z,7.40
2023-02-18T06:25:02.564Z,7.41
2023-02-18T06:28:07.118Z,7.40
2023-02-18T06:31:13.437Z,7.38
2023-02-18T06:34:19.735Z,7.38
2023-02-18T06:37:24.285Z,7.39
2023-02-18T06:40:30.452Z,7.38
2023-02-18T06:43:36.930Z,7.37
2023-02-18T06:46:43.149Z,7.39
2023-02-18T06:49:49.427Z,7.43
2023-02-18T06:52:53.930Z,7.47
2023-02-18T06:56:00.328Z,7.48
2023-02-18T06:59:06.509Z,7.49
2023-02-18T07:02:14.255Z,7.53
2023-02-18T07:05:20.632Z,7.59
2023-02-18T07:08:25.055Z,7.66
2023-02-18T07:11:31.261Z,7.69
2023-02-18T07:14:35.559Z,7.72
2023-02-18T07:17:41.817Z,7.75
2023-02-18T07:20:48.091Z,7.77
2023-02-18T07:23:52.638Z,7.80
2023-02-18T07:26:58.885Z,7.85
2023-02-18T07:30:05.688Z,7.92
2023-02-18T07:33:11.901Z,7.98
2023-02-18T07:36:16.449Z,8.02
2023-02-18T07:39:22.837Z,8.04
2023-02-18T07:42:29.036Z,8.07
2023-02-18T07:45:33.874Z,8.08
2023-02-18T07:48:40.310Z,8.09
2023-02-18T07:51:44.931Z,8.10
2023-02-18T07:54:51.295Z,8.10
2023-02-18T07:58:01.039Z,8.11
2023-02-18T08:01:11.052Z,8.13
2023-02-18T08:04:17.383Z,8.14
2023-02-18T08:07:24.572Z,8.16
2023-02-18T08:10:30.844Z,8.15
2023-02-18T08:13:35.336Z,8.15
2023-02-18T08:16:41.598Z,8.14
2023-02-18T08:19:46.141Z,8.14
2023-02-18T08:22:52.422Z,8.13
2023-02-18T08:25:56.910Z,8.12
2023-02-18T08:29:03.603Z,8.11
2023-02-18T08:32:09.929Z,8.10
2023-02-18T08:35:17.058Z,8.09
2023-02-18T08:38:24.409Z,8.09
2023-02-18T08:41:30.644Z,8.10
2023-02-18T08:44:36.876Z,8.11
2023-02-18T08:48:17.097Z,8.10
2023-02-18T08:51:17.668Z,8.10
2023-02-18T08:54:24.248Z,8.11
2023-02-18T08:57:30.490Z,8.13
2023-02-18T09:00:35.026Z,8.15
2023-02-18T09:03:42.249Z,8.18
2023-02-18T09:06:48.480Z,8.21
2023-02-18T09:09:52.999Z,8.23
2023-02-18T09:12:59.281Z,8.25
2023-02-18T09:16:05.349Z,8.30
2023-02-18T09:19:11.759Z,8.33
2023-02-18T09:22:18.190Z,8.35
2023-02-18T09:25:24.865Z,8.37
2023-02-18T09:28:30.834Z,8.40
2023-02-18T09:31:38.121Z,8.41
2023-02-18T09:34:44.484Z,8.42
2023-02-18T09:37:48.998Z,8.42
2023-02-18T09:40:57.075Z,8.43
2023-02-18T09:44:06.893Z,8.43
2023-02-18T09:47:18.443Z,8.44
2023-02-18T09:50:29.019Z,8.45
2023-02-18T09:53:35.277Z,8.47
2023-02-18T09:56:40.765Z,8.51
2023-02-18T09:59:49.002Z,8.53
2023-02-18T10:03:00.390Z,8.55
2023-02-18T10:06:12.199Z,8.57
2023-02-18T10:09:22.780Z,8.59
2023-02-18T10:12:33.052Z,8.61
2023-02-18T10:15:42.155Z,8.62
2023-02-18T10:18:50.384Z,8.65
2023-02-18T10:21:58.687Z,8.68
2023-02-18T10:25:08.255Z,8.72
2023-02-18T10:28:14.687Z,8.76
2023-02-18T10:31:27.045Z,8.82
2023-02-18T10:34:43.561Z,8.93
2023-02-18T10:38:03.013Z,9.02
2023-02-18T10:41:19.231Z,9.11
2023-02-18T10:44:37.963Z,9.19
2023-02-18T10:47:52.399Z,9.26
2023-02-18T10:51:01.757Z,9.33
2023-02-18T10:54:10.115Z,9.33
2023-02-18T10:57:21.618Z,9.32
2023-02-18T11:00:29.087Z,9.32
2023-02-18T11:03:45.242Z,9.28
2023-02-18T11:06:53.228Z,9.23
2023-02-18T11:10:01.873Z,9.22
2023-02-18T11:13:10.405Z,9.24
2023-02-18T11:16:17.430Z,9.27
2023-02-18T11:19:38.121Z,9.29
2023-02-18T11:22:44.287Z,9.31
2023-02-18T11:26:06.089Z,9.31
2023-02-18T11:29:21.303Z,9.32
2023-02-18T11:32:30.730Z,9.35
2023-02-18T11:35:39.019Z,9.43
2023-02-18T11:38:49.787Z,9.53
2023-02-18T11:42:00.460Z,9.59
2023-02-18T11:45:07.274Z,9.62
2023-02-18T11:48:20.072Z,9.63
2023-02-18T11:51:28.131Z,9.63
2023-02-18T11:54:36.129Z,9.61
2023-02-18T11:57:45.311Z,9.56
2023-02-18T12:00:53.068Z,9.51
2023-02-18T12:04:05.556Z,9.55
2023-02-18T12:07:20.599Z,9.61
2023-02-18T12:10:31.345Z,9.60
2023-02-18T12:13:42.763Z,9.53
2023-02-18T12:17:13.350Z,9.48
2023-02-18T12:20:49.475Z,9.40
2023-02-18T12:24:05.139Z,9.24
2023-02-18T12:27:18.887Z,9.17
2023-02-18T12:31:00.723Z,9.09
2023-02-18T12:34:26.111Z,8.97
2023-02-18T12:37:58.269Z,8.92
2023-02-18T12:41:20.504Z,8.89
2023-02-18T12:44:45.658Z,8.80
2023-02-18T12:48:11.525Z,8.77
2023-02-18T12:51:40.648Z,8.74
2023-02-18T12:55:18.569Z,8.71
2023-02-18T12:58:38.642Z,8.67
2023-02-18T13:02:02.123Z,8.64
2023-02-18T13:05:17.098Z,8.63
2023-02-18T13:08:38.714Z,8.64
2023-02-18T13:11:56.645Z,8.60
2023-02-18T13:15:07.956Z,8.57
2023-02-18T13:18:18.109Z,8.57
2023-02-18T13:21:26.540Z,8.56
2023-02-18T13:24:35.256Z,8.57
2023-02-18T13:27:47.076Z,8.60
2023-02-18T13:31:00.382Z,8.60
2023-02-18T13:34:14.208Z,8.56
2023-02-18T13:37:27.934Z,8.57
2023-02-18T13:40:35.444Z,8.59
2023-02-18T13:43:41.718Z,8.57
2023-02-18T13:46:53.151Z,8.55
2023-02-18T13:49:59.219Z,8.56
2023-02-18T13:53:30.903Z,8.57
2023-02-18T13:56:41.892Z,8.59
2023-02-18T13:59:49.853Z,8.61
2023-02-18T14:03:04.199Z,8.60
2023-02-18T14:06:21.407Z,8.62
2023-02-18T14:09:42.996Z,8.62
2023-02-18T14:13:20.019Z,8.64
2023-02-18T14:16:26.389Z,8.66
2023-02-18T14:19:33.217Z,8.67
2023-02-18T14:22:49.157Z,8.66
2023-02-18T14:25:57.381Z,8.61
2023-02-18T14:29:09.755Z,8.59
2023-02-18T14:32:19.313Z,8.58
2023-02-18T14:35:34.195Z,8.57
2023-02-18T14:38:49.956Z,8.57
2023-02-18T14:42:02.979Z,8.58
2023-02-18T14:45:28.396Z,8.57
2023-02-18T14:48:52.489Z,8.57
2023-02-18T14:52:00.449Z,8.58
2023-02-18T14:55:09.579Z,8.60
2023-02-18T14:58:29.409Z,8.62
2023-02-18T15:01:38.544Z,8.61
2023-02-18T15:04:46.017Z,8.61
2023-02-18T15:08:04.075Z,8.56
2023-02-18T15:11:13.126Z,8.49
2023-02-18T15:14:25.949Z,8.44
2023-02-18T15:17:32.228Z,8.40
2023-02-18T15:20:39.820Z,8.38
2023-02-18T15:23:46.045Z,8.37
2023-02-18T15:26:52.176Z,8.36
2023-02-18T15:30:00.973Z,8.35
2023-02-18T15:33:15.251Z,8.32
2023-02-18T15:36:21.982Z,8.25
2023-02-18T15:39:28.650Z,8.24
2023-02-18T15:42:37.703Z,8.27
2023-02-18T15:45:46.010Z,8.34
2023-02-18T15:48:53.591Z,8.41
2023-02-18T15:52:02.346Z,8.47
2023-02-18T15:55:15.911Z,8.55
2023-02-18T15:58:26.217Z,8.60
2023-02-18T16:01:32.851Z,8.63
2023-02-18T16:04:42.444Z,8.64
2023-02-18T16:07:58.737Z,8.64
2023-02-18T16:11:07.676Z,8.63
2023-02-18T16:14:28.175Z,8.61
2023-02-18T16:17:35.195Z,8.59
2023-02-18T16:20:42.358Z,8.58
2023-02-18T16:23:58.067Z,8.57
2023-02-18T16:27:08.091Z,8.54
2023-02-18T16:30:20.365Z,8.53
2023-02-18T16:33:26.597Z,8.53
2023-02-18T16:36:31.076Z,8.52
2023-02-18T16:39:37.784Z,8.51
2023-02-18T16:42:43.972Z,8.51
2023-02-18T16:45:50.027Z,8.55
2023-02-18T16:48:57.420Z,8.59
2023-02-18T16:52:08.221Z,8.64
2023-02-18T16:55:20.685Z,8.70
2023-02-18T16:58:26.844Z,8.77
2023-02-18T17:01:32.205Z,8.82
2023-02-18T17:04:38.895Z,8.88
2023-02-18T17:07:45.087Z,8.95
2023-02-18T17:10:52.781Z,9.01
2023-02-18T17:13:59.490Z,9.09
2023-02-18T17:17:11.825Z,9.16
2023-02-18T17:20:18.394Z,9.24
2023-02-18T17:23:26.173Z,9.27
2023-02-18T17:26:33.353Z,9.27
2023-02-18T17:29:39.617Z,9.26
2023-02-18T17:32:44.890Z,9.22
2023-02-18T17:35:51.224Z,9.19
2023-02-18T17:38:57.644Z,9.16
2023-02-18T17:42:03.805Z,9.13
2023-02-18T17:45:17.253Z,9.11
2023-02-18T17:48:23.691Z,9.07
2023-02-18T17:51:30.407Z,9.05
2023-02-18T17:54:36.585Z,9.05
2023-02-18T17:57:40.982Z,9.05
2023-02-18T18:00:50.524Z,9.05
2023-02-18T18:03:56.732Z,9.06
2023-02-18T18:07:01.236Z,9.05
2023-02-18T18:10:09.694Z,9.04
2023-02-18T18:13:20.354Z,9.04
2023-02-18T18:16:27.315Z,9.04
2023-02-18T18:19:34.278Z,9.05
2023-02-18T18:22:42.845Z,9.07
2023-02-18T18:25:50.740Z,9.10
2023-02-18T18:33:20.433Z,9.14
2023-02-18T18:36:26.837Z,9.14
2023-02-18T18:39:33.327Z,9.13
2023-02-18T18:42:39.429Z,9.12
2023-02-18T18:45:46.525Z,9.11
2023-02-18T18:48:52.736Z,9.13
2023-02-18T18:51:57.238Z,9.13
2023-02-18T18:55:03.410Z,9.10
2023-02-18T18:58:07.943Z,9.08
2023-02-18T19:01:18.867Z,9.05
2023-02-18T19:04:26.150Z,9.03
2023-02-18T19:07:32.968Z,9.00
2023-02-18T19:10:40.469Z,8.97
2023-02-18T19:13:46.874Z,8.93
2023-02-18T19:16:56.015Z,8.90
2023-02-18T19:20:02.762Z,8.88
2023-02-18T19:23:09.568Z,8.86
2023-02-18T19:26:18.204Z,8.85
2023-02-18T19:29:24.539Z,8.83
2023-02-18T19:32:30.930Z,8.82
2023-02-18T19:35:39.940Z,8.84
2023-02-18T19:38:46.956Z,8.84
2023-02-18T19:41:53.238Z,8.85
2023-02-18T19:44:58.052Z,8.86
2023-02-18T19:48:06.759Z,8.86
2023-02-18T19:51:14.717Z,8.88
2023-02-18T19:54:20.948Z,8.89
2023-02-18T19:57:25.656Z,8.90
2023-02-18T20:00:31.912Z,8.91
2023-02-18T20:03:36.529Z,8.92
2023-02-18T20:06:43.029Z,8.93
2023-02-18T20:09:52.249Z,8.94
2023-02-18T20:12:58.532Z,8.95
2023-02-18T20:16:06.712Z,8.97
2023-02-18T20:19:13.526Z,8.98
2023-02-18T20:22:19.818Z,8.97
2023-02-18T20:25:26.753Z,8.98
2023-02-18T20:28:33.025Z,8.98
2023-02-18T20:31:37.836Z,8.99
2023-02-18T20:34:44.108Z,8.98
2023-02-18T20:37:48.669Z,8.97
2023-02-18T20:40:54.890Z,8.93
2023-02-18T20:44:01.995Z,8.89
2023-02-18T20:47:08.820Z,8.85
2023-02-18T20:50:15.933Z,8.84
2023-02-18T20:53:22.071Z,8.84
2023-02-18T20:56:30.791Z,8.85
2023-02-18T20:59:37.446Z,8.87
2023-02-18T21:02:43.747Z,8.88
2023-02-18T21:05:57.425Z,8.90
2023-02-18T21:09:03.695Z,8.92
2023-02-18T21:12:09.794Z,8.92
2023-02-18T21:15:16.005Z,8.91
2023-02-18T21:18:20.447Z,8.87
2023-02-18T21:21:27.058Z,8.82
2023-02-18T21:24:33.422Z,8.78
2023-02-18T21:27:39.631Z,8.76
2023-02-18T21:30:45.492Z,8.72
2023-02-18T21:33:49.940Z,8.69
2023-02-18T21:36:56.028Z,8.63
2023-02-18T21:40:02.274Z,8.55
2023-02-18T21:43:06.789Z,8.45
2023-02-18T21:46:17.850Z,8.36
2023-02-18T21:49:24.129Z,8.28
2023-02-18T21:52:29.108Z,8.24
2023-02-18T21:55:35.318Z,8.18
2023-02-18T21:58:41.816Z,8.12
2023-02-18T22:01:48.055Z,8.06
2023-02-18T22:04:53.055Z,8.04
2023-02-18T22:07:59.098Z,8.03
2023-02-18T22:11:07.311Z,7.99
2023-02-18T22:14:14.849Z,7.95
2023-02-18T22:17:22.299Z,7.91
2023-02-18T22:20:28.557Z,7.88
2023-02-18T22:23:33.671Z,7.86
2023-02-18T22:26:39.946Z,7.81
2023-02-18T22:29:44.491Z,7.75
2023-02-18T22:32:50.717Z,7.71
2023-02-18T22:35:56.878Z,7.67
2023-02-18T22:39:03.652Z,7.64
2023-02-18T22:42:09.930Z,7.64
2023-02-18T22:45:14.464Z,7.62
2023-02-18T22:48:20.749Z,7.57
2023-02-18T22:51:26.098Z,7.52
2023-02-18T22:54:32.348Z,7.49
2023-02-18T22:57:38.802Z,7.46
2023-02-18T23:00:45.119Z,7.46
2023-02-18T23:03:49.612Z,7.43
2023-02-18T23:06:56.932Z,7.41
2023-02-18T23:10:03.241Z,7.41
2023-02-18T23:13:09.408Z,7.40
2023-02-18T23:16:16.808Z,7.39
2023-02-18T23:19:23.337Z,7.38
2023-02-18T23:22:33.608Z,7.38
2023-02-18T23:25:39.952Z,7.37
2023-02-18T23:28:49.386Z,7.34
2023-02-18T23:31:55.659Z,7.30
2023-02-18T23:35:01.825Z,7.27
2023-02-18T23:38:08.085Z,7.26
2023-02-18T23:41:12.602Z,7.25
2023-02-18T23:44:20.682Z,7.23
2023-02-18T23:47:27.179Z,7.22
2023-02-18T23:50:33.368Z,7.24
2023-02-18T23:53:40.133Z,7.23
2023-02-18T23:56:46.404Z,7.21
2023-02-18T23:59:50.919Z,7.20
